sensor_id;sensor_type;location;lat;lon;timestamp;pressure;altitude;pressure_sealevel;temperature;humidity
57376;BME280;44805;45.048;5.062;2023-05-19T00:01:56;99925.56;;;12.68;100.00
57376;BME280;44805;45.048;5.062;2023-05-19T00:04:24;99932.72;;;12.76;100.00
57376;BME280;44805;45.048;5.062;2023-05-19T00:06:55;99947.06;;;12.73;100.00
57376;BME280;44805;45.048;5.062;2023-05-19T00:09:23;99933.16;;;12.63;100.00
57376;BME280;44805;45.048;5.062;2023-05-19T00:11:49;99916.53;;;12.79;100.00
57376;BME280;44805;45.048;5.062;2023-05-19T00:14:14;99935.59;;;12.91;100.00
57376;BME280;44805;45.048;5.062;2023-05-19T00:16:40;99939.72;;;12.93;100.00
57376;BME280;44805;45.048;5.062;2023-05-19T00:19:06;99927.31;;;12.86;100.00
57376;BME280;44805;45.048;5.062;2023-05-19T00:21:34;99888.22;;;12.55;100.00
57376;BME280;44805;45.048;5.062;2023-05-19T00:24:01;99920.19;;;12.78;100.00
57376;BME280;44805;45.048;5.062;2023-05-19T00:26:27;99934.34;;;12.77;100.00
57376;BME280;44805;45.048;5.062;2023-05-19T00:28:52;99935.16;;;12.69;100.00
57376;BME280;44805;45.048;5.062;2023-05-19T00:31:18;99935.16;;;12.69;100.00
57376;BME280;44805;45.048;5.062;2023-05-19T00:33:56;99917.19;;;12.73;100.00
57376;BME280;44805;45.048;5.062;2023-05-19T00:36:21;99917.28;;;12.63;100.00
57376;BME280;44805;45.048;5.062;2023-05-19T00:38:47;99882.88;;;12.47;100.00
57376;BME280;44805;45.048;5.062;2023-05-19T00:41:12;99904.09;;;12.63;100.00
57376;BME280;44805;45.048;5.062;2023-05-19T00:43:38;99919.66;;;12.74;100.00
57376;BME280;44805;45.048;5.062;2023-05-19T00:46:03;99879.50;;;12.63;100.00
57376;BME280;44805;45.048;5.062;2023-05-19T00:51:41;99902.75;;;12.59;100.00
57376;BME280;44805;45.048;5.062;2023-05-19T00:54:07;99901.25;;;12.56;100.00
57376;BME280;44805;45.048;5.062;2023-05-19T00:56:33;99892.47;;;12.48;100.00
57376;BME280;44805;45.048;5.062;2023-05-19T00:58:59;99896.44;;;12.52;100.00
57376;BME280;44805;45.048;5.062;2023-05-19T01:01:25;99871.66;;;12.45;100.00
57376;BME280;44805;45.048;5.062;2023-05-19T01:04:03;99894.00;;;12.58;100.00
57376;BME280;44805;45.048;5.062;2023-05-19T01:06:29;99886.97;;;12.41;100.00
57376;BME280;44805;45.048;5.062;2023-05-19T01:08:54;99883.19;;;12.44;100.00
57376;BME280;44805;45.048;5.062;2023-05-19T01:11:21;99885.09;;;12.33;100.00
57376;BME280;44805;45.048;5.062;2023-05-19T01:13:47;99875.56;;;12.06;100.00
57376;BME280;44805;45.048;5.062;2023-05-19T01:16:30;99876.88;;;12.10;100.00
57376;BME280;44805;45.048;5.062;2023-05-19T01:30:36;99883.97;;;12.10;100.00
57376;BME280;44805;45.048;5.062;2023-05-19T01:33:41;99880.66;;;12.08;100.00
57376;BME280;44805;45.048;5.062;2023-05-19T01:36:08;99870.09;;;12.08;100.00
57376;BME280;44805;45.048;5.062;2023-05-19T01:38:37;99881.25;;;12.20;100.00
57376;BME280;44805;45.048;5.062;2023-05-19T01:41:03;99888.94;;;12.13;100.00
57376;BME280;44805;45.048;5.062;2023-05-19T01:43:30;99886.16;;;12.14;100.00
57376;BME280;44805;45.048;5.062;2023-05-19T01:45:56;99882.84;;;12.12;100.00
57376;BME280;44805;45.048;5.062;2023-05-19T01:48:23;99884.66;;;12.12;100.00
57376;BME280;44805;45.048;5.062;2023-05-19T01:50:49;99889.75;;;12.13;100.00
57376;BME280;44805;45.048;5.062;2023-05-19T01:53:15;99894.38;;;12.11;100.00
57376;BME280;44805;45.048;5.062;2023-05-19T01:55:47;99890.91;;;12.11;100.00
57376;BME280;44805;45.048;5.062;2023-05-19T02:03:41;99887.97;;;12.40;100.00
57376;BME280;44805;45.048;5.062;2023-05-19T02:09:07;99871.53;;;12.28;100.00
57376;BME280;44805;45.048;5.062;2023-05-19T02:11:37;99886.19;;;12.49;100.00
57376;BME280;44805;45.048;5.062;2023-05-19T02:15:05;99868.97;;;12.36;100.00
57376;BME280;44805;45.048;5.062;2023-05-19T02:17:19;99860.69;;;12.05;100.00
57376;BME280;44805;45.048;5.062;2023-05-19T02:19:45;99863.22;;;12.15;100.00
57376;BME280;44805;45.048;5.062;2023-05-19T02:22:11;99850.13;;;12.05;100.00
57376;BME280;44805;45.048;5.062;2023-05-19T02:24:36;99863.72;;;12.19;100.00
57376;BME280;44805;45.048;5.062;2023-05-19T02:27:02;99874.09;;;12.12;100.00
57376;BME280;44805;45.048;5.062;2023-05-19T02:29:27;99873.78;;;12.15;100.00
57376;BME280;44805;45.048;5.062;2023-05-19T02:31:53;99873.81;;;11.97;100.00
57376;BME280;44805;45.048;5.062;2023-05-19T02:34:18;99843.53;;;11.83;100.00
57376;BME280;44805;45.048;5.062;2023-05-19T02:36:44;99859.91;;;11.87;100.00
57376;BME280;44805;45.048;5.062;2023-05-19T02:39:10;99859.81;;;11.79;100.00
57376;BME280;44805;45.048;5.062;2023-05-19T02:41:36;99865.41;;;11.76;100.00
57376;BME280;44805;45.048;5.062;2023-05-19T02:44:01;99863.41;;;11.78;100.00
57376;BME280;44805;45.048;5.062;2023-05-19T02:46:26;99848.22;;;11.71;100.00
57376;BME280;44805;45.048;5.062;2023-05-19T02:48:52;99834.28;;;11.61;100.00
57376;BME280;44805;45.048;5.062;2023-05-19T02:51:17;99814.72;;;11.46;100.00
57376;BME280;44805;45.048;5.062;2023-05-19T02:53:43;99846.56;;;11.70;100.00
57376;BME280;44805;45.048;5.062;2023-05-19T02:56:08;99850.72;;;11.73;100.00
57376;BME280;44805;45.048;5.062;2023-05-19T02:58:33;99852.72;;;11.79;100.00
57376;BME280;44805;45.048;5.062;2023-05-19T03:00:59;99846.03;;;11.67;100.00
57376;BME280;44805;45.048;5.062;2023-05-19T03:03:25;99841.06;;;11.64;100.00
57376;BME280;44805;45.048;5.062;2023-05-19T03:05:51;99806.88;;;11.36;100.00
57376;BME280;44805;45.048;5.062;2023-05-19T03:08:18;99798.31;;;11.34;100.00
57376;BME280;44805;45.048;5.062;2023-05-19T03:10:45;99781.44;;;11.27;100.00
57376;BME280;44805;45.048;5.062;2023-05-19T03:13:10;99811.84;;;11.39;100.00
57376;BME280;44805;45.048;5.062;2023-05-19T03:15:36;99783.63;;;11.14;100.00
57376;BME280;44805;45.048;5.062;2023-05-19T03:18:07;99797.94;;;11.29;100.00
57376;BME280;44805;45.048;5.062;2023-05-19T03:20:32;99848.91;;;11.56;100.00
57376;BME280;44805;45.048;5.062;2023-05-19T03:22:58;99846.28;;;11.56;100.00
57376;BME280;44805;45.048;5.062;2023-05-19T03:25:24;99825.41;;;11.44;100.00
57376;BME280;44805;45.048;5.062;2023-05-19T03:27:50;99827.28;;;11.52;100.00
57376;BME280;44805;45.048;5.062;2023-05-19T03:30:15;99824.28;;;11.47;100.00
57376;BME280;44805;45.048;5.062;2023-05-19T03:32:41;99844.16;;;11.59;100.00
57376;BME280;44805;45.048;5.062;2023-05-19T03:35:06;99824.91;;;11.41;100.00
57376;BME280;44805;45.048;5.062;2023-05-19T03:37:32;99839.50;;;11.53;100.00
57376;BME280;44805;45.048;5.062;2023-05-19T03:40:00;99839.56;;;11.61;100.00
57376;BME280;44805;45.048;5.062;2023-05-19T03:42:26;99836.94;;;11.61;100.00
57376;BME280;44805;45.048;5.062;2023-05-19T03:44:51;99832.47;;;11.62;100.00
57376;BME280;44805;45.048;5.062;2023-05-19T03:47:17;99854.63;;;11.69;100.00
57376;BME280;44805;45.048;5.062;2023-05-19T03:49:42;99825.41;;;11.44;100.00
57376;BME280;44805;45.048;5.062;2023-05-19T03:52:08;99829.25;;;11.50;100.00
57376;BME280;44805;45.048;5.062;2023-05-19T03:54:34;99852.25;;;11.58;100.00
57376;BME280;44805;45.048;5.062;2023-05-19T03:57:00;99851.78;;;11.44;100.00
57376;BME280;44805;45.048;5.062;2023-05-19T03:59:26;99859.91;;;11.51;100.00
57376;BME280;44805;45.048;5.062;2023-05-19T04:01:52;99854.34;;;11.54;100.00
57376;BME280;44805;45.048;5.062;2023-05-19T04:07:39;99841.84;;;11.38;100.00
57376;BME280;44805;45.048;5.062;2023-05-19T04:10:05;99846.06;;;11.31;100.00
57376;BME280;44805;45.048;5.062;2023-05-19T04:12:31;99851.63;;;11.28;100.00
57376;BME280;44805;45.048;5.062;2023-05-19T04:14:57;99843.03;;;11.26;100.00
57376;BME280;44805;45.048;5.062;2023-05-19T04:17:38;99846.06;;;11.31;100.00
57376;BME280;44805;45.048;5.062;2023-05-19T04:20:04;99825.78;;;11.14;100.00
57376;BME280;44805;45.048;5.062;2023-05-19T04:22:32;99846.28;;;11.20;100.00
57376;BME280;44805;45.048;5.062;2023-05-19T04:24:58;99868.88;;;11.22;100.00
57376;BME280;44805;45.048;5.062;2023-05-19T04:27:24;99857.72;;;11.11;100.00
57376;BME280;44805;45.048;5.062;2023-05-19T04:29:52;99857.03;;;11.26;100.00
57376;BME280;44805;45.048;5.062;2023-05-19T04:32:17;99813.97;;;11.18;100.00
57376;BME280;44805;45.048;5.062;2023-05-19T04:34:43;99858.91;;;11.16;100.00
57376;BME280;44805;45.048;5.062;2023-05-19T04:37:12;99840.91;;;11.12;100.00
57376;BME280;44805;45.048;5.062;2023-05-19T04:39:39;99842.97;;;11.18;100.00
57376;BME280;44805;45.048;5.062;2023-05-19T04:42:07;99830.38;;;11.12;100.00
57376;BME280;44805;45.048;5.062;2023-05-19T04:44:34;99857.03;;;11.26;100.00
57376;BME280;44805;45.048;5.062;2023-05-19T04:47:00;99849.38;;;11.15;100.00
57376;BME280;44805;45.048;5.062;2023-05-19T04:49:35;99841.41;;;11.25;100.00
57376;BME280;44805;45.048;5.062;2023-05-19T04:52:07;99849.06;;;11.36;100.00
57376;BME280;44805;45.048;5.062;2023-05-19T04:54:37;99859.78;;;11.52;100.00
57376;BME280;44805;45.048;5.062;2023-05-19T04:57:03;99863.38;;;11.51;100.00
57376;BME280;44805;45.048;5.062;2023-05-19T04:59:28;99858.09;;;11.51;100.00
57376;BME280;44805;45.048;5.062;2023-05-19T05:01:55;99864.88;;;11.36;100.00
57376;BME280;44805;45.048;5.062;2023-05-19T05:04:21;99870.22;;;11.26;100.00
57376;BME280;44805;45.048;5.062;2023-05-19T05:06:47;99871.06;;;11.45;100.00
57376;BME280;44805;45.048;5.062;2023-05-19T05:09:16;99865.63;;;11.28;100.00
57376;BME280;44805;45.048;5.062;2023-05-19T05:11:42;99838.81;;;11.33;100.00
57376;BME280;44805;45.048;5.062;2023-05-19T05:14:09;99870.44;;;11.69;100.00
57376;BME280;44805;45.048;5.062;2023-05-19T05:16:35;99872.28;;;11.86;100.00
57376;BME280;44805;45.048;5.062;2023-05-19T05:19:01;99859.38;;;11.83;100.00
57376;BME280;44805;45.048;5.062;2023-05-19T05:21:27;99844.28;;;11.93;100.00
57376;BME280;44805;45.048;5.062;2023-05-19T05:23:53;99853.91;;;12.03;100.00
57376;BME280;44805;45.048;5.062;2023-05-19T05:26:20;99801.25;;;11.75;100.00
57376;BME280;44805;45.048;5.062;2023-05-19T05:28:48;99850.03;;;12.15;100.00
57376;BME280;44805;45.048;5.062;2023-05-19T05:31:14;99819.28;;;12.06;100.00
57376;BME280;44805;45.048;5.062;2023-05-19T05:33:40;99833.75;;;12.28;100.00
57376;BME280;44805;45.048;5.062;2023-05-19T05:36:06;99842.59;;;12.45;100.00
57376;BME280;44805;45.048;5.062;2023-05-19T05:38:31;99879.56;;;12.45;100.00
57376;BME280;44805;45.048;5.062;2023-05-19T05:40:57;99864.16;;;12.32;100.00
57376;BME280;44805;45.048;5.062;2023-05-19T05:43:22;99820.63;;;12.10;100.00
57376;BME280;44805;45.048;5.062;2023-05-19T05:45:48;99856.94;;;12.42;100.00
57376;BME280;44805;45.048;5.062;2023-05-19T05:48:13;99867.78;;;12.65;100.00
57376;BME280;44805;45.048;5.062;2023-05-19T05:50:40;99862.38;;;12.75;100.00
57376;BME280;44805;45.048;5.062;2023-05-19T05:53:07;99828.97;;;12.66;99.49
57376;BME280;44805;45.048;5.062;2023-05-19T05:55:33;99877.47;;;12.91;100.00
57376;BME280;44805;45.048;5.062;2023-05-19T05:57:59;99857.78;;;12.85;98.39
57376;BME280;44805;45.048;5.062;2023-05-19T06:00:26;99863.25;;;12.92;98.44
57376;BME280;44805;45.048;5.062;2023-05-19T06:03:23;99865.22;;;12.90;97.96
57376;BME280;44805;45.048;5.062;2023-05-19T06:05:48;99851.63;;;12.76;96.91
57376;BME280;44805;45.048;5.062;2023-05-19T06:08:14;99863.91;;;12.94;96.63
57376;BME280;44805;45.048;5.062;2023-05-19T06:10:41;99840.91;;;12.78;94.35
57376;BME280;44805;45.048;5.062;2023-05-19T06:13:07;99855.72;;;13.13;96.23
57376;BME280;44805;45.048;5.062;2023-05-19T06:15:32;99831.25;;;13.11;95.00
57376;BME280;44805;45.048;5.062;2023-05-19T06:17:58;99814.25;;;13.14;94.02
57376;BME280;44805;45.048;5.062;2023-05-19T06:20:23;99855.13;;;13.44;95.51
57376;BME280;44805;45.048;5.062;2023-05-19T06:22:49;99859.78;;;13.66;94.11
57376;BME280;44805;45.048;5.062;2023-05-19T06:25:14;99780.88;;;13.13;92.07
57376;BME280;44805;45.048;5.062;2023-05-19T06:27:41;99858.13;;;13.82;93.47
57376;BME280;44805;45.048;5.062;2023-05-19T06:30:06;99825.69;;;13.55;92.12
57376;BME280;44805;45.048;5.062;2023-05-19T06:32:32;99850.81;;;13.76;92.56
57376;BME280;44805;45.048;5.062;2023-05-19T06:34:58;99814.13;;;13.56;92.87
57376;BME280;44805;45.048;5.062;2023-05-19T06:37:25;99836.75;;;13.51;92.15
57376;BME280;44805;45.048;5.062;2023-05-19T06:39:52;99856.63;;;13.87;91.73
57376;BME280;44805;45.048;5.062;2023-05-19T06:42:18;99857.44;;;13.80;92.94
57376;BME280;44805;45.048;5.062;2023-05-19T06:44:51;99839.25;;;13.85;89.14
57376;BME280;44805;45.048;5.062;2023-05-19T06:47:17;99848.81;;;13.94;93.23
57376;BME280;44805;45.048;5.062;2023-05-19T06:50:08;99844.84;;;13.98;88.50
57376;BME280;44805;45.048;5.062;2023-05-19T06:52:33;99831.97;;;13.87;86.33
57376;BME280;44805;45.048;5.062;2023-05-19T06:54:59;99828.31;;;13.88;86.14
57376;BME280;44805;45.048;5.062;2023-05-19T06:57:24;99798.72;;;13.84;83.07
57376;BME280;44805;45.048;5.062;2023-05-19T06:59:52;99799.22;;;13.80;82.22
57376;BME280;44805;45.048;5.062;2023-05-19T07:02:18;99816.06;;;14.03;83.30
57376;BME280;44805;45.048;5.062;2023-05-19T07:08:05;99827.22;;;14.38;83.00
57376;BME280;44805;45.048;5.062;2023-05-19T07:10:35;99831.50;;;14.39;82.90
57376;BME280;44805;45.048;5.062;2023-05-19T07:13:01;99845.72;;;14.54;81.63
57376;BME280;44805;45.048;5.062;2023-05-19T07:15:27;99816.66;;;14.30;82.22
57376;BME280;44805;45.048;5.062;2023-05-19T07:17:54;99844.09;;;14.53;84.04
57376;BME280;44805;45.048;5.062;2023-05-19T07:20:19;99801.03;;;14.43;82.46
57376;BME280;44805;45.048;5.062;2023-05-19T07:22:45;99744.88;;;14.08;80.27
57376;BME280;44805;45.048;5.062;2023-05-19T07:25:11;99789.47;;;14.36;81.16
57376;BME280;44805;45.048;5.062;2023-05-19T07:27:36;99809.44;;;14.63;80.38
57376;BME280;44805;45.048;5.062;2023-05-19T07:30:02;99830.78;;;14.62;79.42
57376;BME280;44805;45.048;5.062;2023-05-19T07:32:30;99811.94;;;14.57;81.33
57376;BME280;44805;45.048;5.062;2023-05-19T07:34:56;99794.69;;;14.52;80.62
57376;BME280;44805;45.048;5.062;2023-05-19T07:37:21;99817.44;;;14.78;79.76
57376;BME280;44805;45.048;5.062;2023-05-19T07:39:49;99734.56;;;14.22;79.69
57376;BME280;44805;45.048;5.062;2023-05-19T07:42:14;99784.97;;;14.84;83.22
57376;BME280;44805;45.048;5.062;2023-05-19T07:44:42;99778.66;;;14.85;81.00
57376;BME280;44805;45.048;5.062;2023-05-19T07:47:08;99752.63;;;14.66;82.57
57376;BME280;44805;45.048;5.062;2023-05-19T07:49:33;99805.31;;;15.15;83.03
57376;BME280;44805;45.048;5.062;2023-05-19T07:51:59;99774.22;;;15.09;80.88
57376;BME280;44805;45.048;5.062;2023-05-19T07:54:24;99726.88;;;14.97;79.48
57376;BME280;44805;45.048;5.062;2023-05-19T07:56:50;99788.06;;;15.57;82.08
57376;BME280;44805;45.048;5.062;2023-05-19T07:59:15;99767.81;;;15.41;79.89
57376;BME280;44805;45.048;5.062;2023-05-19T08:01:41;99726.91;;;15.35;80.12
57376;BME280;44805;45.048;5.062;2023-05-19T08:04:09;99761.06;;;15.53;78.40
57376;BME280;44805;45.048;5.062;2023-05-19T08:06:34;99728.09;;;15.33;77.64
57376;BME280;44805;45.048;5.062;2023-05-19T08:09:00;99809.31;;;15.80;74.39
57376;BME280;44805;45.048;5.062;2023-05-19T08:11:25;99711.09;;;15.42;75.14
57376;BME280;44805;45.048;5.062;2023-05-19T08:13:51;99780.28;;;15.78;73.51
57376;BME280;44805;45.048;5.062;2023-05-19T08:16:19;99753.63;;;15.49;74.13
57376;BME280;44805;45.048;5.062;2023-05-19T08:18:45;99787.00;;;15.66;74.70
57376;BME280;44805;45.048;5.062;2023-05-19T08:21:10;99749.44;;;15.39;75.19
57376;BME280;44805;45.048;5.062;2023-05-19T08:23:36;99719.41;;;15.01;75.63
57376;BME280;44805;45.048;5.062;2023-05-19T08:26:02;99768.47;;;15.43;72.81
57376;BME280;44805;45.048;5.062;2023-05-19T08:28:27;99741.44;;;15.25;75.23
57376;BME280;44805;45.048;5.062;2023-05-19T08:30:53;99755.56;;;15.40;75.18
57376;BME280;44805;45.048;5.062;2023-05-19T08:33:31;99812.81;;;15.95;72.98
57376;BME280;44805;45.048;5.062;2023-05-19T08:35:56;99704.88;;;15.50;72.43
57376;BME280;44805;45.048;5.062;2023-05-19T08:38:23;99742.72;;;15.81;71.46
57376;BME280;44805;45.048;5.062;2023-05-19T08:40:48;99746.03;;;15.98;72.58
57376;BME280;44805;45.048;5.062;2023-05-19T08:43:14;99803.34;;;16.82;70.64
57376;BME280;44805;45.048;5.062;2023-05-19T08:45:43;99752.59;;;16.47;69.04
57376;BME280;44805;45.048;5.062;2023-05-19T08:48:15;99739.41;;;16.39;69.30
57376;BME280;44805;45.048;5.062;2023-05-19T08:50:51;99735.03;;;16.31;70.12
57376;BME280;44805;45.048;5.062;2023-05-19T08:53:19;99797.09;;;16.75;69.55
57376;BME280;44805;45.048;5.062;2023-05-19T08:58:34;99792.56;;;17.11;68.61
57376;BME280;44805;45.048;5.062;2023-05-19T09:06:19;99779.97;;;17.42;66.52
57376;BME280;44805;45.048;5.062;2023-05-19T09:08:45;99755.69;;;17.51;64.48
57376;BME280;44805;45.048;5.062;2023-05-19T09:11:11;99782.94;;;17.53;64.58
57376;BME280;44805;45.048;5.062;2023-05-19T09:13:37;99785.66;;;17.88;65.57
57376;BME280;44805;45.048;5.062;2023-05-19T09:16:03;99688.94;;;17.25;65.06
57376;BME280;44805;45.048;5.062;2023-05-19T09:18:29;99755.78;;;17.65;65.68
57376;BME280;44805;45.048;5.062;2023-05-19T09:20:56;99765.47;;;18.00;63.58
57376;BME280;44805;45.048;5.062;2023-05-19T09:23:28;99775.41;;;18.20;62.41
57376;BME280;44805;45.048;5.062;2023-05-19T09:25:54;99770.38;;;18.04;63.56
57376;BME280;44805;45.048;5.062;2023-05-19T09:28:31;99777.03;;;18.21;62.90
57376;BME280;44805;45.048;5.062;2023-05-19T09:31:09;99785.38;;;18.05;62.11
57376;BME280;44805;45.048;5.062;2023-05-19T09:33:37;99741.75;;;17.49;63.39
57376;BME280;44805;45.048;5.062;2023-05-19T09:36:03;99778.75;;;17.66;63.44
57376;BME280;44805;45.048;5.062;2023-05-19T09:38:31;99770.03;;;17.78;63.33
57376;BME280;44805;45.048;5.062;2023-05-19T09:40:58;99745.53;;;17.62;62.22
57376;BME280;44805;45.048;5.062;2023-05-19T09:43:31;99737.72;;;17.88;61.78
57376;BME280;44805;45.048;5.062;2023-05-19T09:51:06;99713.19;;;17.65;61.12
57376;BME280;44805;45.048;5.062;2023-05-19T09:53:34;99727.53;;;17.70;61.78
57376;BME280;44805;45.048;5.062;2023-05-19T09:56:00;99682.44;;;17.62;62.40
57376;BME280;44805;45.048;5.062;2023-05-19T09:58:30;99771.22;;;18.04;61.89
57376;BME280;44805;45.048;5.062;2023-05-19T10:00:58;99736.47;;;17.84;61.43
57376;BME280;44805;45.048;5.062;2023-05-19T10:03:25;99757.69;;;17.71;60.61
57376;BME280;44805;45.048;5.062;2023-05-19T10:05:52;99753.34;;;17.70;61.79
57376;BME280;44805;45.048;5.062;2023-05-19T10:08:19;99704.53;;;17.84;61.28
57376;BME280;44805;45.048;5.062;2023-05-19T10:10:45;99739.09;;;18.19;60.81
57376;BME280;44805;45.048;5.062;2023-05-19T10:13:11;99715.19;;;18.32;59.49
57376;BME280;44805;45.048;5.062;2023-05-19T10:15:39;99728.94;;;18.36;59.14
57376;BME280;44805;45.048;5.062;2023-05-19T10:18:08;99735.31;;;18.35;60.23
57376;BME280;44805;45.048;5.062;2023-05-19T10:20:34;99734.13;;;18.03;59.92
57376;BME280;44805;45.048;5.062;2023-05-19T10:23:00;99717.66;;;18.34;59.68
57376;BME280;44805;45.048;5.062;2023-05-19T10:25:28;99720.09;;;18.22;60.04
57376;BME280;44805;45.048;5.062;2023-05-19T10:27:59;99693.66;;;18.34;59.95
57376;BME280;44805;45.048;5.062;2023-05-19T10:30:29;99753.03;;;18.62;59.52
57376;BME280;44805;45.048;5.062;2023-05-19T10:32:59;99718.16;;;18.57;60.33
57376;BME280;44805;45.048;5.062;2023-05-19T10:45:57;99699.38;;;19.25;56.22
57376;BME280;44805;45.048;5.062;2023-05-19T10:48:22;99667.16;;;18.94;55.34
57376;BME280;44805;45.048;5.062;2023-05-19T10:50:52;99754.00;;;19.43;54.00
57376;BME280;44805;45.048;5.062;2023-05-19T10:53:18;99754.38;;;19.13;55.74
57376;BME280;44805;45.048;5.062;2023-05-19T10:55:53;99663.66;;;18.86;56.13
57376;BME280;44805;45.048;5.062;2023-05-19T10:58:37;99731.63;;;19.24;57.06
57376;BME280;44805;45.048;5.062;2023-05-19T11:01:07;99691.56;;;19.04;56.40
57376;BME280;44805;45.048;5.062;2023-05-19T11:06:36;99659.28;;;18.59;56.26
57376;BME280;44805;45.048;5.062;2023-05-19T11:09:12;99734.66;;;18.81;58.78
57376;BME280;44805;45.048;5.062;2023-05-19T11:11:52;99701.53;;;18.62;58.08
57376;BME280;44805;45.048;5.062;2023-05-19T11:14:25;99698.06;;;18.55;58.07
57376;BME280;44805;45.048;5.062;2023-05-19T11:16:55;99709.97;;;18.72;59.26
57376;BME280;44805;45.048;5.062;2023-05-19T11:19:27;99735.00;;;18.71;58.38
57376;BME280;44805;45.048;5.062;2023-05-19T11:21:53;99648.50;;;18.19;57.61
57376;BME280;44805;45.048;5.062;2023-05-19T11:26:58;99684.34;;;18.10;59.50
57376;BME280;44805;45.048;5.062;2023-05-19T11:29:23;99684.59;;;18.15;59.91
57376;BME280;44805;45.048;5.062;2023-05-19T11:31:49;99687.25;;;18.15;60.29
57376;BME280;44805;45.048;5.062;2023-05-19T11:34:16;99737.41;;;18.53;59.79
57376;BME280;44805;45.048;5.062;2023-05-19T11:36:42;99702.53;;;18.48;60.81
57376;BME280;44805;45.048;5.062;2023-05-19T11:39:10;99666.66;;;17.89;59.14
57376;BME280;44805;45.048;5.062;2023-05-19T11:41:38;99701.38;;;18.15;59.68
57376;BME280;44805;45.048;5.062;2023-05-19T11:44:09;99736.75;;;18.44;59.43
57376;BME280;44805;45.048;5.062;2023-05-19T11:46:35;99682.88;;;18.00;59.26
57376;BME280;44805;45.048;5.062;2023-05-19T11:49:04;99639.09;;;17.75;60.35
57376;BME280;44805;45.048;5.062;2023-05-19T11:51:29;99674.56;;;18.17;61.40
57376;BME280;44805;45.048;5.062;2023-05-19T11:53:56;99639.06;;;17.68;60.01
57376;BME280;44805;45.048;5.062;2023-05-19T11:56:56;99737.88;;;18.15;61.17
57376;BME280;44805;45.048;5.062;2023-05-19T11:59:32;99674.47;;;18.04;61.59
57376;BME280;44805;45.048;5.062;2023-05-19T12:02:14;99706.97;;;18.34;61.36
57376;BME280;44805;45.048;5.062;2023-05-19T12:04:42;99733.38;;;18.70;61.76
57376;BME280;44805;45.048;5.062;2023-05-19T12:07:10;99673.19;;;18.34;58.64
57376;BME280;44805;45.048;5.062;2023-05-19T12:09:36;99696.13;;;18.35;58.38
57376;BME280;44805;45.048;5.062;2023-05-19T12:12:24;99723.81;;;18.34;58.15
57376;BME280;44805;45.048;5.062;2023-05-19T12:14:50;99723.41;;;18.44;59.15
57376;BME280;44805;45.048;5.062;2023-05-19T12:17:17;99704.16;;;18.49;59.16
57376;BME280;44805;45.048;5.062;2023-05-19T12:19:45;99668.44;;;18.36;58.05
57376;BME280;44805;45.048;5.062;2023-05-19T12:22:11;99705.19;;;18.54;58.81
57376;BME280;44805;45.048;5.062;2023-05-19T12:24:38;99650.34;;;18.12;58.96
57376;BME280;44805;45.048;5.062;2023-05-19T12:30:11;99695.91;;;18.30;58.88
57376;BME280;44805;45.048;5.062;2023-05-19T12:32:39;99637.59;;;18.00;57.77
57376;BME280;44805;45.048;5.062;2023-05-19T12:35:05;99646.66;;;18.13;58.27
57376;BME280;44805;45.048;5.062;2023-05-19T12:37:32;99589.63;;;17.94;57.33
57376;BME280;44805;45.048;5.062;2023-05-19T12:39:59;99699.06;;;18.54;58.23
57376;BME280;44805;45.048;5.062;2023-05-19T12:42:34;99642.81;;;18.29;58.38
57376;BME280;44805;45.048;5.062;2023-05-19T12:45:01;99641.41;;;18.46;57.53
57376;BME280;44805;45.048;5.062;2023-05-19T12:47:35;99690.53;;;18.85;57.13
57376;BME280;44805;45.048;5.062;2023-05-19T12:50:08;99647.34;;;18.41;56.68
57376;BME280;44805;45.048;5.062;2023-05-19T12:52:45;99695.03;;;18.78;56.19
57376;BME280;44805;45.048;5.062;2023-05-19T12:55:11;99619.25;;;18.32;56.78
57376;BME280;44805;45.048;5.062;2023-05-19T12:57:39;99607.56;;;18.33;56.60
57376;BME280;44805;45.048;5.062;2023-05-19T13:00:15;99685.00;;;19.13;55.55
57376;BME280;44805;45.048;5.062;2023-05-19T13:03:07;99632.66;;;18.99;54.45
57376;BME280;44805;45.048;5.062;2023-05-19T13:05:38;99703.91;;;19.12;55.13
57376;BME280;44805;45.048;5.062;2023-05-19T13:08:09;99639.22;;;19.03;54.13
57376;BME280;44805;45.048;5.062;2023-05-19T13:10:36;99631.63;;;19.00;55.88
57376;BME280;44805;45.048;5.062;2023-05-19T13:13:12;99686.41;;;19.62;54.90
57376;BME280;44805;45.048;5.062;2023-05-19T13:15:43;99634.09;;;19.21;55.39
57376;BME280;44805;45.048;5.062;2023-05-19T13:18:14;99635.53;;;19.24;56.30
57376;BME280;44805;45.048;5.062;2023-05-19T13:20:43;99678.41;;;19.42;55.58
57376;BME280;44805;45.048;5.062;2023-05-19T13:23:17;99642.69;;;19.30;56.06
57376;BME280;44805;45.048;5.062;2023-05-19T13:25:43;99588.53;;;18.96;55.80
57376;BME280;44805;45.048;5.062;2023-05-19T13:28:10;99641.88;;;19.29;55.15
57376;BME280;44805;45.048;5.062;2023-05-19T13:30:39;99643.50;;;19.37;54.76
57376;BME280;44805;45.048;5.062;2023-05-19T13:33:05;99621.75;;;19.34;55.00
57376;BME280;44805;45.048;5.062;2023-05-19T13:35:31;99598.34;;;19.22;54.64
57376;BME280;44805;45.048;5.062;2023-05-19T13:38:05;99585.81;;;19.23;55.40
57376;BME280;44805;45.048;5.062;2023-05-19T13:40:32;99618.66;;;19.37;54.66
57376;BME280;44805;45.048;5.062;2023-05-19T13:43:29;99664.81;;;19.70;55.29
57376;BME280;44805;45.048;5.062;2023-05-19T13:45:55;99587.94;;;18.94;54.52
57376;BME280;44805;45.048;5.062;2023-05-19T13:48:23;99589.75;;;19.07;54.27
57376;BME280;44805;45.048;5.062;2023-05-19T13:50:49;99585.66;;;18.98;54.63
57376;BME280;44805;45.048;5.062;2023-05-19T13:53:16;99668.56;;;19.43;54.76
57376;BME280;44805;45.048;5.062;2023-05-19T13:55:42;99605.78;;;19.07;54.42
57376;BME280;44805;45.048;5.062;2023-05-19T14:01:29;99645.16;;;19.25;54.69
57376;BME280;44805;45.048;5.062;2023-05-19T14:03:57;99621.78;;;19.07;56.22
57376;BME280;44805;45.048;5.062;2023-05-19T14:06:23;99630.63;;;19.01;56.60